Terminal Aerodrome Forecast
Issued by NWS Sterling, VA

Home | Current Version | Previous Version | Text Only | Print | Product List | Glossary On
Versions: 1 2 3 4 5 6 7 8 9 10 11 12 13 14 15 16 17 18 19
000
FTUS41 KLWX 011900 AAB
TAFMRB
TAF AMD
KMRB 011947Z 0120/0218 14005KT P6SM OVC050
     FM012100 13004KT P6SM OVC025
     FM012300 13005KT 4SM -PLRASN OVC025
     FM020200 12005KT 6SM FZRA OVC025
     FM020500 14004KT 1SM RA OVC008
     FM020800 23006KT 1 1/2SM -RA OVC008
     FM021400 27009KT P6SM BKN015
     FM021500 27011KT P6SM BKN090
     FM021700 28016G24KT P6SM SCT090=

USA.gov is the U.S. government's official web portal to all federal, state and local government web resources and services.